Etusivu
METAR-TAF:

METAR-TAF

Lentoasemat :

Dothan, Alabama, Yhdysvallat

Leveyspiiri: 31-19-17N, Pituuspiiri: 085-26-59W, korkeus merenpinnasta: 122 m

Tämänhetkinen sää

Tämä raportti tehtiin 56 minuuttia sitten, kello 03.53 UTC
tyyntä
Lämpötila 8°C
Kosteus 71%
Ilmanpaine 1022 hPa
Näkyvyys: 16.1 km
selkeää

METAR: KDHN 260353Z AUTO 00000KT 10SM CLR 08/03 A3018 RMK AO2 SLP220 T00780033

Aika: 22:49 (04:49 UTC)

Sääennuste

Tämä raportti tehtiin 5 tuntia ja 29 minuuttia sitten, kello 23.20 UTC
Ennuste voimassa 26. päivästä klo 00 UTC - 26. päivään klo 24 UTC
Tuuli 3 kn luoteesta
Näkyvyys: 10 km
Hajanaisia pilviä 25000 ft:n korkeudessa

TAF: KDHN 252320Z 2600/2624 32003KT P6SM SCT250

Säähavainnot ja -ennusteet yli 4000 lentoasemalta (METAR- ja TAF-raportit).

Käytössä olevat sääasemat on merkitty karttaan keltaisilla ja punaisilla pisteillä.

Aseta hiiri pisteen päälle nähdäksesi sääaseman nimen.

Klikkaa sitten nähdäksesi säähavainnot ja -ennusteet.

Kartan vaihtaminen: klikkaa mustalla rastilla varustettuja vihreitä pisteitä, niin voit zoomata sisään; viivalla varustettua vihreää pistettä, niin voit zoomata ulos tai vihreitä nuolia, niin pääset viereisille kartoille.


METAR-TAF: